Time;durP1;ratioP1;P1;durP2;ratioP2;P2;SDS_P1;SDS_P2;PMS_P1;PMS_P2;Temp;Humidity;BMP_temperature;BMP_pressure;BME280_temperature;BME280_humidity;BME280_pressure;Samples;Min_cycle;Max_cycle;Signal;HPM_P1;HPM_P2
2022/03/07 00:00:25;;;;;;;2.80;2.60;;;-1.00;1.40;;;-0.11;78.06;95685.52;650345;216;31580;-76
2022/03/07 00:03:06;;;;;;;3.28;3.03;;;-1.00;1.40;;;0.00;77.32;95685.05;646775;212;42197;-75
2022/03/07 00:05:48;;;;;;;2.40;2.20;;;-1.00;1.40;;;0.14;76.65;95691.91;649873;216;31551;-76
2022/03/07 00:08:33;;;;;;;2.50;2.30;;;-0.90;1.40;;;0.10;76.47;95693.30;649100;212;31965;-76
2022/03/07 00:11:16;;;;;;;3.10;2.37;;;-0.90;1.40;;;0.06;76.66;95680.74;646939;216;32088;-75
2022/03/07 00:13:58;;;;;;;3.60;2.33;;;-1.00;1.40;;;0.07;76.87;95682.26;645635;216;31585;-76
2022/03/07 00:16:42;;;;;;;4.73;4.30;;;-1.00;1.40;;;0.06;77.37;95684.64;654373;212;24586;-75
2022/03/07 00:19:23;;;;;;;3.12;2.80;;;-1.00;1.40;;;0.12;77.19;95688.34;646036;216;31566;-75
2022/03/07 00:22:05;;;;;;;5.20;3.67;;;-1.00;1.40;;;-0.30;80.06;95688.23;648946;216;31595;-76
2022/03/07 00:24:47;;;;;;;3.22;3.03;;;-1.10;1.40;;;-0.03;79.97;95687.08;641989;220;31564;-75
2022/03/07 00:27:29;;;;;;;2.50;2.30;;;-1.10;1.40;;;-0.20;81.51;95691.19;648754;216;31541;-76
2022/03/07 00:30:15;;;;;;;4.20;2.00;;;-1.10;1.40;;;-0.09;81.62;95698.61;650492;213;31595;-75
2022/03/07 00:32:57;;;;;;;2.97;2.75;;;-1.10;1.40;;;-0.31;84.53;95696.09;651003;212;31683;-76
2022/03/07 00:35:53;;;;;;;4.78;2.78;;;-1.20;1.40;;;-0.40;87.17;95698.36;618042;226;32141;-75
2022/03/07 00:38:41;;;;;;;2.50;2.30;;;-1.20;1.40;;;-0.89;94.42;95700.70;644552;216;31551;-75
2022/03/07 00:41:23;;;;;;;2.60;2.20;;;-1.40;1.40;;;-0.85;98.72;95696.81;647687;216;31534;-76
2022/03/07 00:44:05;;;;;;;2.62;2.42;;;-1.40;1.40;;;-0.84;100.00;95699.02;645356;216;31561;-76
2022/03/07 00:46:48;;;;;;;2.28;2.08;;;-1.40;1.40;;;-0.77;100.00;95689.55;644739;216;31581;-75
2022/03/07 00:49:33;;;;;;;2.60;2.20;;;-1.40;1.40;;;-0.59;100.00;95688.39;645227;216;31600;-76
2022/03/07 00:52:18;;;;;;;1.85;1.75;;;-1.40;1.40;;;-0.83;100.00;95688.77;619354;222;31953;-76
2022/03/07 00:54:59;;;;;;;2.33;2.17;;;-1.50;1.40;;;-0.68;100.00;95686.50;648204;216;31595;-75
2022/03/07 00:57:41;;;;;;;3.65;2.30;;;-1.40;1.40;;;-0.49;100.00;95684.08;650907;216;31542;-75
2022/03/07 01:00:23;;;;;;;3.30;3.10;;;-1.40;1.40;;;-0.40;100.00;95679.83;646761;216;31564;-75
2022/03/07 01:03:04;;;;;;;2.70;2.50;;;-1.40;1.40;;;-0.44;100.00;95678.50;650475;216;32116;-76
2022/03/07 01:05:47;;;;;;;2.17;1.90;;;-1.40;1.40;;;-0.44;100.00;95676.33;647030;212;31645;-75
2022/03/07 01:08:28;;;;;;;3.70;2.80;;;-1.50;1.40;;;-0.72;100.00;95678.86;649722;216;31557;-75
2022/03/07 01:11:10;;;;;;;4.35;3.28;;;-1.50;1.40;;;-0.71;100.00;95682.49;649832;212;31605;-76
2022/03/07 01:13:52;;;;;;;4.60;2.45;;;-1.60;1.40;;;-0.81;100.00;95677.80;652659;212;32413;-75
2022/03/07 01:16:34;;;;;;;2.10;1.90;;;-1.60;1.40;;;-0.76;100.00;95680.63;621818;222;32131;-75
2022/03/07 01:19:18;;;;;;;3.05;2.85;;;-1.60;1.40;;;-0.51;100.00;95687.98;647564;216;31544;-72
2022/03/07 01:22:06;;;;;;;1.98;1.83;;;-1.50;1.40;;;-0.76;100.00;95679.31;619465;222;31882;-75
2022/03/07 01:24:47;;;;;;;2.00;1.80;;;-1.60;1.40;;;-0.80;100.00;95682.73;644591;216;31588;-75
2022/03/07 01:27:30;;;;;;;8.70;2.40;;;-1.60;1.40;;;-0.64;100.00;95683.05;617467;226;32188;-76
2022/03/07 01:30:12;;;;;;;4.53;2.80;;;-1.60;1.40;;;-0.78;100.00;95685.11;646711;216;31623;-75
2022/03/07 01:32:57;;;;;;;3.33;2.20;;;-1.60;1.40;;;-0.68;100.00;95682.25;647546;212;31550;-76
2022/03/07 01:35:51;;;;;;;2.12;2.00;;;-1.70;1.40;;;-0.95;100.00;95682.25;644343;212;31705;-75
2022/03/07 01:38:33;;;;;;;3.47;3.12;;;-1.70;1.40;;;-0.89;100.00;95683.81;651892;216;31670;-77
2022/03/07 01:41:17;;;;;;;2.50;2.30;;;-1.70;1.40;;;-0.87;100.00;95679.50;650101;216;31545;-73
2022/03/07 01:46:36;;;;;;;3.92;2.10;;;-1.70;1.40;;;-1.08;100.00;95684.05;650476;216;31527;-75
2022/03/07 01:49:18;;;;;;;2.22;2.05;;;-1.70;1.40;;;-1.08;100.00;95679.58;648787;212;31539;-75
2022/03/07 01:51:59;;;;;;;3.00;2.45;;;-1.70;1.40;;;-1.15;100.00;95675.68;644705;216;31722;-75
2022/03/07 01:54:42;;;;;;;4.15;2.50;;;-1.70;1.40;;;-0.99;100.00;95676.25;649657;212;42791;-75
2022/03/07 01:57:33;;;;;;;3.00;2.00;;;-1.70;1.40;;;-0.70;100.00;95670.95;648440;212;32089;-73
2022/03/07 02:00:16;;;;;;;3.90;2.33;;;-1.60;1.40;;;-0.67;100.00;95670.45;648846;216;31576;-73
2022/03/07 02:03:03;;;;;;;3.60;2.53;;;-1.60;1.40;;;-0.58;100.00;95668.54;646835;212;31624;-76
2022/03/07 02:05:47;;;;;;;2.55;2.35;;;-1.50;1.40;;;-0.69;100.00;95667.00;650450;216;31609;-75
2022/03/07 02:08:28;;;;;;;4.53;3.25;;;-1.60;1.40;;;-0.67;100.00;95663.64;618009;225;31926;-76
2022/03/07 02:11:10;;;;;;;3.63;2.80;;;-1.60;1.40;;;-0.41;100.00;95660.14;622837;225;31952;-75
2022/03/07 02:13:56;;;;;;;2.62;2.17;;;-1.50;1.40;;;-0.54;100.00;95661.55;649224;216;31585;-75
2022/03/07 02:16:41;;;;;;;2.10;1.90;;;-1.50;1.40;;;-0.61;100.00;95662.94;645863;216;31649;-73
2022/03/07 02:19:33;;;;;;;2.53;1.90;;;-1.60;1.40;;;-0.55;100.00;95660.14;651061;216;31647;-75
2022/03/07 02:22:20;;;;;;;3.72;3.35;;;-1.60;1.40;;;-0.38;100.00;95664.48;621119;225;32240;-75
2022/03/07 02:25:08;;;;;;;4.95;2.50;;;-1.60;1.40;;;-0.51;100.00;95661.14;621279;226;31920;-76
2022/03/07 02:27:56;;;;;;;3.22;2.22;;;-1.60;1.40;;;-0.42;100.00;95663.68;620494;226;32138;-76
2022/03/07 02:30:38;;;;;;;2.92;1.85;;;-1.60;1.40;;;-0.64;100.00;95661.10;623272;222;31894;-75
2022/03/07 02:35:50;;;;;;;3.78;2.92;;;-1.70;1.40;;;-0.61;100.00;95661.52;650265;212;32198;-75
2022/03/07 02:38:32;;;;;;;3.40;3.10;;;-1.60;1.40;;;-0.64;100.00;95657.77;647646;216;32086;-74
2022/03/07 02:41:14;;;;;;;4.43;3.28;;;-1.60;1.40;;;-0.49;100.00;95663.73;649246;212;31547;-75
2022/03/07 02:43:56;;;;;;;4.10;2.67;;;-1.60;1.40;;;-0.67;100.00;95667.63;618643;222;32042;-75
2022/03/07 02:46:38;;;;;;;4.97;2.60;;;-1.70;1.40;;;-0.89;100.00;95669.73;647470;216;31625;-75
2022/03/07 02:49:21;;;;;;;3.25;2.95;;;-1.70;1.40;;;-0.72;100.00;95669.70;646594;216;31613;-76
2022/03/07 02:52:03;;;;;;;4.75;3.60;;;-1.60;1.40;;;-0.64;100.00;95670.20;652399;216;31575;-75
2022/03/07 02:57:28;;;;;;;6.25;2.72;;;-1.60;1.40;;;-0.50;100.00;95659.60;617540;226;31981;-74
2022/03/07 03:00:11;;;;;;;4.18;3.80;;;-1.60;1.40;;;-0.53;100.00;95659.85;651559;216;31727;-75
2022/03/07 03:03:12;;;;;;;3.72;3.42;;;-1.60;1.40;;;-0.49;100.00;95664.49;627852;222;32131;-76
2022/03/07 03:06:07;;;;;;;2.78;2.35;;;-1.60;1.40;;;-0.66;100.00;95663.68;618389;225;31967;-76
2022/03/07 03:09:07;;;;;;;3.92;2.10;;;-1.70;1.40;;;-0.69;100.00;95665.83;647431;216;32207;-75
2022/03/07 03:11:56;;;;;;;3.50;3.20;;;-1.70;1.40;;;-0.70;100.00;95664.59;631823;221;31675;-73
2022/03/07 03:14:41;;;;;;;3.47;2.35;;;-1.70;1.40;;;-0.68;100.00;95666.54;648073;216;31586;-76
2022/03/07 03:17:25;;;;;;;3.92;3.55;;;-1.70;1.40;;;-0.60;100.00;95669.62;649069;212;31762;-75
2022/03/07 03:20:11;;;;;;;3.20;2.90;;;-1.80;1.40;;;-0.80;100.00;95671.55;648180;212;31657;-75
2022/03/07 03:22:59;;;;;;;4.10;3.28;;;-1.80;1.40;;;-0.93;100.00;95669.80;646717;216;31555;-75
2022/03/07 03:25:41;;;;;;;2.80;2.60;;;-1.80;1.40;;;-0.73;100.00;95672.12;647921;216;31568;-76
2022/03/07 03:28:24;;;;;;;3.20;2.90;;;-1.80;1.40;;;-0.74;100.00;95670.88;620856;226;31940;-75
2022/03/07 03:31:12;;;;;;;2.42;2.22;;;-1.70;1.40;;;-0.66;100.00;95667.52;647404;216;31626;-73
2022/03/07 03:35:56;;;;;;;4.55;3.30;;;-1.90;1.40;;;-0.83;100.00;95670.36;646088;216;31979;-75
2022/03/07 03:38:38;;;;;;;2.70;2.30;;;-1.90;1.40;;;-0.89;100.00;95670.03;647595;216;31579;-74
2022/03/07 03:41:36;;;;;;;2.12;1.60;;;-1.80;1.40;;;-1.08;100.00;95668.31;652873;212;31503;-75
2022/03/07 03:44:28;;;;;;;3.10;2.70;;;-1.90;1.40;;;-0.92;100.00;95667.58;654567;212;31530;-75
2022/03/07 03:47:17;;;;;;;2.30;2.10;;;-1.90;1.40;;;-0.86;100.00;95666.33;649227;216;31645;-75
2022/03/07 03:50:14;;;;;;;2.53;2.33;;;-1.90;1.40;;;-0.81;100.00;95661.73;645053;214;31935;-76
2022/03/07 03:53:01;;;;;;;2.83;2.12;;;-1.90;1.40;;;-1.04;100.00;95663.87;645805;216;31823;-75
2022/03/07 03:55:57;;;;;;;3.00;1.90;;;-1.90;1.40;;;-1.17;100.00;95664.51;649345;212;31548;-77
2022/03/07 03:58:45;;;;;;;4.45;3.00;;;-2.00;1.40;;;-1.15;100.00;95662.78;645137;216;31677;-74
2022/03/07 04:01:35;;;;;;;2.90;1.90;;;-2.00;1.40;;;-1.07;100.00;95671.27;648617;216;31741;-76
2022/03/07 04:04:24;;;;;;;2.87;2.58;;;-1.90;1.40;;;-1.24;100.00;95669.30;644108;215;31687;-76
2022/03/07 04:07:05;;;;;;;4.32;3.08;;;-2.00;1.40;;;-1.09;100.00;95670.30;645898;216;31700;-74
2022/03/07 04:09:47;;;;;;;3.28;2.90;;;-1.90;1.40;;;-1.21;100.00;95671.17;623038;226;32554;-74
2022/03/07 04:12:38;;;;;;;4.30;2.65;;;-2.00;1.40;;;-1.13;100.00;95667.34;625258;226;31970;-76
2022/03/07 04:15:26;;;;;;;3.65;2.85;;;-2.00;1.40;;;-1.11;100.00;95670.66;651509;216;31888;-73
2022/03/07 04:18:22;;;;;;;4.32;2.92;;;-2.00;1.40;;;-1.21;100.00;95673.09;620300;222;42514;-77
2022/03/07 04:21:04;;;;;;;2.45;1.90;;;-2.00;1.40;;;-1.16;100.00;95672.89;651982;216;31566;-76
2022/03/07 04:23:48;;;;;;;2.75;2.08;;;-2.00;1.40;;;-1.28;100.00;95668.66;647293;212;32144;-73
2022/03/07 04:26:29;;;;;;;2.53;2.17;;;-2.10;1.40;;;-1.12;100.00;95666.19;620970;222;32735;-75
2022/03/07 04:29:17;;;;;;;3.90;2.22;;;-2.10;1.40;;;-1.17;100.00;95668.46;646733;216;32167;-75
2022/03/07 04:32:15;;;;;;;2.87;2.53;;;-2.10;1.40;;;-1.19;100.00;95672.92;624063;222;32460;-76
2022/03/07 04:35:52;;;;;;;3.10;2.00;;;-2.10;1.40;;;-1.21;100.00;95674.05;649640;216;31555;-76
2022/03/07 04:38:42;;;;;;;2.15;1.95;;;-2.10;1.40;;;-1.12;100.00;95677.09;619014;222;31837;-77
2022/03/07 04:41:31;;;;;;;2.80;2.37;;;-2.10;1.40;;;-1.03;100.00;95673.09;648145;216;31646;-73
2022/03/07 04:44:15;;;;;;;3.42;2.25;;;-2.00;1.40;;;-0.98;100.00;95674.93;645814;216;31609;-75
2022/03/07 04:46:56;;;;;;;2.15;1.80;;;-2.00;1.40;;;-1.05;100.00;95676.35;648079;216;31530;-73
2022/03/07 05:00:10;;;;;;;2.72;1.70;;;-2.10;1.40;;;-1.23;100.00;95677.55;648844;212;31533;-76
2022/03/07 05:02:57;;;;;;;3.37;3.08;;;-2.10;1.40;;;-1.15;100.00;95678.23;647316;216;31616;-74
2022/03/07 05:05:45;;;;;;;2.70;1.23;;;-2.10;1.40;;;-1.36;100.00;95680.58;619162;226;31874;-76
2022/03/07 05:08:27;;;;;;;2.58;2.15;;;-2.10;1.40;;;-1.33;100.00;95679.97;618342;222;32055;-76
2022/03/07 05:11:14;;;;;;;3.00;2.20;;;-2.20;1.40;;;-1.31;100.00;95680.87;644970;212;31604;-75
2022/03/07 05:16:30;;;;;;;3.20;2.90;;;-2.10;1.40;;;-1.24;100.00;95677.31;648244;216;31531;-75
2022/03/07 05:19:15;;;;;;;2.80;2.30;;;-2.20;1.40;;;-1.20;100.00;95683.59;650923;212;32168;-72
2022/03/07 05:21:57;;;;;;;4.65;2.35;;;-2.10;1.40;;;-1.11;100.00;95689.72;649948;216;31566;-73
2022/03/07 05:24:45;;;;;;;4.80;2.60;;;-2.10;1.40;;;-1.24;100.00;95691.73;652133;212;31549;-77
2022/03/07 05:27:26;;;;;;;2.22;2.03;;;-2.10;1.40;;;-1.22;100.00;95688.38;647949;212;32189;-76
2022/03/07 05:30:15;;;;;;;2.97;2.50;;;-2.10;1.40;;;-1.17;100.00;95687.03;644658;216;31572;-73
2022/03/07 05:32:56;;;;;;;2.90;2.10;;;-2.20;1.40;;;-1.28;100.00;95683.81;643165;220;31561;-73
2022/03/07 05:35:56;;;;;;;2.20;2.00;;;-2.10;1.40;;;-1.20;100.00;95683.90;653189;214;31610;-77
2022/03/07 05:38:44;;;;;;;2.60;1.98;;;-2.20;1.40;;;-1.09;100.00;95683.33;647818;216;31712;-75
2022/03/07 05:41:33;;;;;;;3.90;1.90;;;-2.20;1.40;;;-1.08;100.00;95683.30;631057;220;31914;-75
2022/03/07 05:44:14;;;;;;;2.85;2.25;;;-2.20;1.40;;;-1.25;100.00;95680.27;648829;212;31578;-76
2022/03/07 05:47:00;;;;;;;3.30;2.10;;;-2.10;1.40;;;-1.19;100.00;95686.33;622110;222;32590;-77
2022/03/07 05:49:48;;;;;;;2.08;1.77;;;-2.20;1.40;;;-1.18;100.00;95689.22;644898;216;33079;-73
2022/03/07 05:52:32;;;;;;;3.78;1.67;;;-2.20;1.40;;;-1.19;100.00;95687.03;650324;212;31616;-77
2022/03/07 05:55:19;;;;;;;2.35;1.80;;;-2.20;1.40;;;-1.14;100.00;95688.11;644158;216;31584;-73
2022/03/07 05:58:01;;;;;;;2.50;2.30;;;-2.20;1.40;;;-1.30;100.00;95689.55;645999;216;31600;-74
2022/03/07 06:00:43;;;;;;;4.32;2.35;;;-2.20;1.40;;;-1.27;100.00;95691.23;643977;216;32440;-72
2022/03/07 06:03:24;;;;;;;2.42;2.15;;;-2.20;1.40;;;-1.22;100.00;95691.58;618519;222;32683;-75
2022/03/07 06:06:06;;;;;;;2.70;2.50;;;-2.10;1.40;;;-1.16;100.00;95691.14;646951;216;32363;-74
2022/03/07 06:09:03;;;;;;;3.10;2.80;;;-2.20;1.40;;;-1.12;100.00;95694.75;630519;220;31951;-77
2022/03/07 06:11:52;;;;;;;4.20;3.80;;;-2.10;1.40;;;-1.25;100.00;95690.80;652907;212;42272;-77
2022/03/07 06:14:39;;;;;;;3.58;3.28;;;-2.10;1.40;;;-1.22;100.00;95694.86;646265;212;31712;-73
2022/03/07 06:17:21;;;;;;;2.20;2.00;;;-2.10;1.40;;;-1.31;100.00;95696.88;651484;216;31888;-75
2022/03/07 06:20:03;;;;;;;3.75;3.40;;;-2.10;1.40;;;-1.04;100.00;95693.03;616995;222;32119;-73
2022/03/07 06:22:45;;;;;;;2.37;1.80;;;-2.00;1.40;;;-1.05;100.00;95696.94;648823;216;31562;-75
2022/03/07 06:25:29;;;;;;;2.40;2.00;;;-2.00;1.40;;;-0.97;100.00;95696.94;649887;216;31539;-77
2022/03/07 06:28:09;;;;;;;1.65;1.55;;;-1.90;1.40;;;-1.04;100.00;95696.55;646904;216;31615;-75
2022/03/07 06:30:52;;;;;;;3.58;2.40;;;-1.90;1.40;;;-1.02;100.00;95704.48;645537;216;31723;-75
2022/03/07 06:35:54;;;;;;;3.15;1.90;;;-1.80;1.40;;;-0.91;100.00;95703.77;646688;212;42216;-73
2022/03/07 06:38:42;;;;;;;2.62;2.08;;;-1.80;1.40;;;-0.82;100.00;95710.94;619286;226;31951;-76
2022/03/07 06:41:23;;;;;;;3.42;2.30;;;-1.80;1.40;;;-0.64;99.58;95715.56;649866;216;32243;-76
2022/03/07 06:44:11;;;;;;;2.70;2.50;;;-1.70;1.40;;;-0.81;99.23;95722.07;645921;216;31604;-75
2022/03/07 06:46:59;;;;;;;2.62;2.30;;;-1.70;1.40;;;-0.48;98.12;95724.32;645605;216;31542;-77
2022/03/07 06:49:51;;;;;;;3.85;2.15;;;-1.70;1.40;;;-0.59;97.45;95722.78;646032;212;32125;-73
2022/03/07 06:52:34;;;;;;;7.03;3.08;;;-1.70;1.40;;;-0.54;97.87;95727.63;616982;224;31919;-77
2022/03/07 06:55:16;;;;;;;3.00;2.70;;;-1.60;1.40;;;-0.46;97.49;95728.25;616413;226;31874;-77
2022/03/07 06:58:04;;;;;;;3.87;2.70;;;-1.60;1.40;;;-0.53;96.74;95736.39;645064;216;31591;-73
2022/03/07 07:00:45;;;;;;;3.12;2.50;;;-1.60;1.40;;;-0.68;97.62;95736.19;648709;216;31540;-75
2022/03/07 07:06:08;;;;;;;3.75;2.62;;;-1.50;1.40;;;-0.36;98.88;95735.11;647039;216;31763;-75
2022/03/07 07:08:52;;;;;;;4.00;3.10;;;-1.30;1.40;;;0.09;96.14;95734.96;646754;212;31723;-76
2022/03/07 07:11:36;;;;;;;4.15;3.45;;;-1.10;1.40;;;0.13;94.52;95733.25;651717;216;31989;-75
2022/03/07 07:14:16;;;;;;;4.20;3.22;;;-1.10;1.40;;;-0.10;94.89;95729.81;648114;216;42333;-75
2022/03/07 07:17:01;;;;;;;3.35;2.58;;;-1.10;1.40;;;0.36;93.01;95730.58;653341;212;31550;-74
2022/03/07 07:19:46;;;;;;;6.05;3.10;;;-1.00;1.40;;;0.44;92.26;95731.05;647389;212;32142;-75
2022/03/07 07:22:27;;;;;;;3.28;2.72;;;-0.90;1.40;;;0.70;90.82;95720.80;620049;222;31927;-76
2022/03/07 07:25:09;;;;;;;4.00;3.60;;;-0.70;1.40;;;0.97;90.21;95726.47;646222;216;31608;-75
2022/03/07 07:27:51;;;;;;;2.72;2.53;;;-0.50;1.40;;;1.20;89.22;95727.98;648554;216;31611;-75
2022/03/07 07:30:33;;;;;;;5.22;4.72;;;-0.20;1.40;;;1.26;87.70;95725.59;618537;222;31897;-75
2022/03/07 07:35:51;;;;;;;4.12;2.78;;;-0.20;1.40;;;1.11;87.57;95735.70;651486;216;31855;-75
2022/03/07 07:38:33;;;;;;;4.28;3.85;;;-0.10;1.40;;;1.36;88.09;95742.57;644832;212;31539;-74
2022/03/07 07:41:17;;;;;;;9.75;3.80;;;-0.10;1.40;;;1.31;86.69;95740.93;646468;216;42686;-76
2022/03/07 07:44:00;;;;;;;5.12;2.50;;;-0.10;1.40;;;1.64;86.20;95738.81;651280;216;31585;-75
2022/03/07 07:46:42;;;;;;;3.60;3.20;;;-0.10;1.40;;;1.42;86.39;95746.59;646393;215;31862;-76
2022/03/07 07:49:24;;;;;;;3.53;3.22;;;-0.20;1.40;;;1.49;85.93;95753.16;647336;216;31763;-75
2022/03/07 07:52:05;;;;;;;3.62;3.30;;;-0.10;1.40;;;0.80;85.76;95759.77;648994;212;42218;-74
2022/03/07 07:54:47;;;;;;;5.25;4.20;;;-0.30;1.40;;;1.29;85.85;95759.28;645877;212;42301;-75
2022/03/07 07:57:29;;;;;;;3.47;2.75;;;-0.10;1.40;;;1.25;85.95;95764.94;647768;216;31584;-75
2022/03/07 08:00:15;;;;;;;6.12;3.85;;;0.00;1.40;;;1.29;86.12;95766.51;649584;216;31564;-75
2022/03/07 08:02:53;;;;;;;3.55;3.25;;;0.10;1.40;;;1.15;84.29;95768.27;646088;216;42169;-75
2022/03/07 08:05:38;;;;;;;3.20;2.87;;;0.00;1.40;;;1.55;84.21;95776.13;645876;212;42181;-75
2022/03/07 08:08:20;;;;;;;4.50;4.10;;;0.20;1.40;;;1.61;83.73;95780.66;645518;216;31625;-75
2022/03/07 08:11:04;;;;;;;4.50;4.10;;;0.40;1.40;;;1.45;81.51;95772.43;644440;216;31937;-75
2022/03/07 08:13:49;;;;;;;4.35;3.90;;;0.30;1.40;;;1.48;82.05;95777.95;651430;216;31842;-75
2022/03/07 08:16:31;;;;;;;3.90;3.60;;;0.40;1.40;;;1.40;83.07;95778.86;643708;212;31735;-74
2022/03/07 08:19:13;;;;;;;3.17;2.83;;;0.50;1.40;;;2.22;81.09;95773.96;649220;216;31716;-75
2022/03/07 08:21:54;;;;;;;4.18;3.75;;;0.90;1.40;;;2.65;79.91;95786.13;646310;212;32363;-73
2022/03/07 08:24:39;;;;;;;5.47;4.97;;;1.10;1.40;;;2.80;78.30;95784.06;646693;212;31587;-74
2022/03/07 08:27:21;;;;;;;4.18;3.78;;;1.00;1.40;;;2.91;76.52;95785.65;647487;216;31574;-75
2022/03/07 08:30:07;;;;;;;3.65;2.92;;;1.00;1.40;;;3.03;75.12;95784.34;647299;216;31597;-76
2022/03/07 08:32:51;;;;;;;5.87;4.03;;;1.30;1.40;;;3.04;75.85;95788.31;645499;212;31671;-77
2022/03/07 08:35:58;;;;;;;6.85;4.43;;;1.20;1.40;;;2.66;76.61;95787.42;647338;216;31750;-75
2022/03/07 08:38:40;;;;;;;6.05;3.50;;;1.40;1.40;;;3.38;75.01;95787.48;646735;216;32451;-75
2022/03/07 08:41:22;;;;;;;3.92;3.50;;;1.60;1.40;;;3.81;72.77;95794.80;648490;212;31604;-75
2022/03/07 08:44:03;;;;;;;4.45;4.00;;;1.80;1.40;;;3.75;70.86;95791.58;647300;216;31612;-75
2022/03/07 08:46:46;;;;;;;6.05;4.70;;;1.80;1.40;;;3.96;70.22;95791.27;646868;216;31616;-75
2022/03/07 08:49:28;;;;;;;5.37;4.28;;;1.80;1.40;;;3.65;69.45;95791.66;616193;222;31945;-75
2022/03/07 08:52:15;;;;;;;7.75;4.62;;;1.80;1.40;;;3.88;70.05;95791.33;646410;212;31575;-75
2022/03/07 08:54:54;;;;;;;5.97;4.22;;;1.90;1.40;;;3.03;69.90;95793.98;646803;212;31606;-76
2022/03/07 09:00:11;;;;;;;4.60;4.20;;;1.70;1.40;;;3.97;70.33;95794.55;647323;212;31594;-76
2022/03/07 09:02:59;;;;;;;4.62;4.12;;;2.00;1.40;;;3.72;70.68;95803.30;647545;216;31572;-76
2022/03/07 09:05:47;;;;;;;4.70;3.70;;;2.20;1.40;;;4.09;70.17;95799.31;618482;225;32275;-75
2022/03/07 09:08:29;;;;;;;6.53;4.30;;;2.60;1.40;;;4.06;68.60;95800.48;646953;216;31605;-75
2022/03/07 09:11:13;;;;;;;5.97;4.30;;;2.70;1.40;;;4.21;70.07;95804.50;646705;216;31570;-75
2022/03/07 09:13:55;;;;;;;6.70;4.90;;;3.10;1.40;;;5.66;65.77;95802.70;647744;216;31932;-75
2022/03/07 09:16:40;;;;;;;6.00;4.45;;;4.20;1.40;;;6.13;61.77;95799.38;620347;226;32533;-75
2022/03/07 09:19:22;;;;;;;8.40;5.12;;;4.30;1.40;;;6.65;59.48;95798.97;647037;216;42371;-75
2022/03/07 09:22:03;;;;;;;5.80;4.10;;;5.00;1.40;;;6.55;58.62;95798.34;619661;222;43132;-73
2022/03/07 09:24:45;;;;;;;12.98;5.80;;;4.20;1.40;;;6.03;58.80;95805.72;619737;226;31943;-73
2022/03/07 09:27:27;;;;;;;6.70;4.80;;;4.20;1.40;;;6.48;58.22;95812.70;646472;212;31563;-73
2022/03/07 09:30:09;;;;;;;8.25;5.57;;;4.40;1.40;;;6.81;58.90;95807.17;648483;216;32144;-74
2022/03/07 09:32:51;;;;;;;5.55;5.05;;;4.90;1.40;;;7.16;55.04;95806.88;647941;216;32432;-75
2022/03/07 09:35:50;;;;;;;6.50;4.80;;;5.10;1.40;;;8.15;55.90;95807.85;619720;222;33889;-76
2022/03/07 09:38:34;;;;;;;7.60;4.90;;;6.90;1.40;;;9.81;51.67;95808.41;647245;216;31610;-75
2022/03/07 09:41:19;;;;;;;7.13;5.67;;;6.70;1.40;;;9.00;50.10;95812.56;646006;216;32192;-74
2022/03/07 09:44:07;;;;;;;7.40;5.70;;;6.40;1.40;;;9.12;50.00;95813.72;647055;216;31785;-75
2022/03/07 09:46:49;;;;;;;6.63;5.20;;;7.30;1.40;;;10.11;47.47;95820.44;647785;216;31606;-75
2022/03/07 09:49:33;;;;;;;6.60;5.80;;;8.20;1.40;;;11.58;47.84;95814.25;646752;212;42212;-74
2022/03/07 09:52:15;;;;;;;6.10;5.50;;;10.00;1.40;;;12.53;44.88;95808.78;646448;216;31599;-76
2022/03/07 09:54:58;;;;;;;6.87;6.00;;;9.40;1.40;;;14.07;43.47;95813.27;647376;216;33828;-74
2022/03/07 09:57:38;;;;;;;9.93;6.40;;;10.70;1.40;;;14.13;40.31;95811.80;616229;224;32398;-74
2022/03/07 10:00:23;;;;;;;6.95;5.87;;;12.00;1.40;;;15.02;39.02;95813.71;646218;216;32056;-76
2022/03/07 10:03:05;;;;;;;6.05;5.40;;;10.90;1.40;;;14.61;38.24;95820.67;646108;216;31667;-73
2022/03/07 10:05:48;;;;;;;6.80;6.20;;;8.30;1.40;;;14.45;39.54;95824.91;646127;216;31606;-73
2022/03/07 10:08:32;;;;;;;7.30;6.28;;;10.00;1.40;;;13.46;39.21;95826.41;618521;226;31876;-74
2022/03/07 10:11:14;;;;;;;7.43;6.32;;;9.70;1.40;;;10.99;39.86;95835.02;645880;212;31519;-74
2022/03/07 10:13:58;;;;;;;6.57;5.62;;;8.80;1.40;;;13.02;41.96;95836.55;646976;212;31577;-74
2022/03/07 10:16:40;;;;;;;8.60;6.87;;;10.00;1.40;;;11.62;39.48;95840.96;619474;225;32075;-74
2022/03/07 10:19:21;;;;;;;8.95;6.72;;;7.70;1.40;;;11.30;41.68;95843.08;646757;216;31560;-74
2022/03/07 10:22:03;;;;;;;7.72;6.30;;;6.20;1.40;;;9.66;45.16;95849.92;645933;212;31616;-75
2022/03/07 10:24:48;;;;;;;8.65;6.07;;;8.10;1.40;;;11.95;41.64;95840.59;631331;222;32853;-74
2022/03/07 10:27:30;;;;;;;7.03;6.32;;;10.10;1.40;;;8.82;44.11;95850.34;645704;212;32138;-75
2022/03/07 10:30:13;;;;;;;8.77;6.50;;;6.70;1.40;;;10.12;43.06;95846.93;647379;216;32121;-74
2022/03/07 10:32:57;;;;;;;6.57;5.97;;;5.70;1.40;;;9.40;42.39;95846.89;647516;216;31545;-76
2022/03/07 10:35:54;;;;;;;6.62;5.57;;;4.80;1.40;;;9.86;44.37;95849.89;619626;226;31932;-75
2022/03/07 10:41:10;;;;;;;9.60;6.50;;;6.30;1.40;;;9.75;43.50;95844.64;646120;216;42170;-74
2022/03/07 10:43:52;;;;;;;8.70;5.68;;;5.90;1.40;;;10.71;40.05;95844.50;647487;212;33073;-75
2022/03/07 10:46:34;;;;;;;6.70;6.05;;;7.40;1.40;;;13.15;39.14;95833.46;646732;212;31560;-74
2022/03/07 10:49:17;;;;;;;6.45;5.80;;;10.50;1.40;;;12.62;35.63;95832.22;648034;212;42190;-75
2022/03/07 10:51:59;;;;;;;6.90;5.53;;;5.60;1.40;;;4.59;49.09;95857.05;647954;216;42160;-76
2022/03/07 10:54:41;;;;;;;8.05;6.40;;;3.00;1.40;;;7.22;47.49;95850.39;646052;216;31981;-75
2022/03/07 10:57:27;;;;;;;6.90;5.93;;;7.30;1.40;;;11.06;44.29;95836.64;647879;216;42277;-76
2022/03/07 11:00:14;;;;;;;7.80;6.25;;;10.00;1.40;;;12.88;38.88;95831.70;646571;216;42201;-75
2022/03/07 11:02:55;;;;;;;7.65;6.07;;;11.10;1.40;;;15.74;36.60;95821.36;646595;216;41387;-74
2022/03/07 11:05:37;;;;;;;9.88;7.57;;;12.30;1.40;;;12.45;39.04;95831.19;646860;216;31633;-76
2022/03/07 11:08:20;;;;;;;8.07;6.70;;;8.70;1.40;;;10.72;39.34;95835.73;647348;216;31556;-73
2022/03/07 11:11:00;;;;;;;8.90;6.45;;;6.80;1.40;;;9.23;42.30;95842.92;645974;212;32096;-73
2022/03/07 11:13:42;;;;;;;11.57;7.00;;;5.30;1.40;;;7.25;46.17;95846.63;646841;216;32195;-75
2022/03/07 11:16:24;;;;;;;8.60;6.90;;;4.30;1.40;;;3.71;53.49;95853.34;647675;216;31572;-73
2022/03/07 11:19:05;;;;;;;8.50;7.20;;;2.90;1.40;;;6.54;48.92;95852.91;619360;226;31975;-75
2022/03/07 11:21:50;;;;;;;7.23;5.90;;;4.20;1.40;;;7.03;48.13;95836.65;646931;216;42541;-75
2022/03/07 11:24:28;;;;;;;6.72;5.70;;;4.30;1.40;;;7.40;46.76;95834.88;645998;212;31557;-75
2022/03/07 11:27:10;;;;;;;9.43;6.70;;;4.20;1.40;;;6.58;47.18;95839.49;647992;216;31668;-75
2022/03/07 11:29:55;;;;;;;8.00;6.03;;;3.90;1.40;;;6.28;48.16;95845.72;649383;216;31563;-75
2022/03/07 11:32:38;;;;;;;7.70;5.27;;;3.50;1.40;;;5.76;48.73;95846.98;648425;216;34038;-75
2022/03/07 11:35:51;;;;;;;6.45;5.35;;;2.80;1.40;;;5.62;49.85;95843.30;648134;212;31532;-75
2022/03/07 11:38:39;;;;;;;7.12;5.53;;;2.90;1.40;;;4.81;51.66;95846.87;622921;225;32047;-76
2022/03/07 11:41:29;;;;;;;7.95;6.18;;;2.70;1.40;;;5.12;52.33;95838.84;621164;222;32042;-75
2022/03/07 11:44:15;;;;;;;8.75;5.50;;;3.10;1.40;;;5.34;51.69;95837.75;649916;212;31532;-74
2022/03/07 11:46:56;;;;;;;8.75;5.75;;;3.00;1.40;;;5.28;52.18;95835.41;619363;226;31948;-74
2022/03/07 11:49:38;;;;;;;7.12;4.60;;;2.90;1.40;;;5.19;52.77;95835.70;646383;216;31570;-74
2022/03/07 11:52:23;;;;;;;8.00;5.37;;;3.10;1.40;;;5.29;52.65;95833.20;646683;216;31566;-75
2022/03/07 11:55:12;;;;;;;8.30;5.80;;;3.30;1.40;;;4.92;52.99;95833.59;620016;226;32038;-75
2022/03/07 11:58:00;;;;;;;6.55;5.07;;;3.00;1.40;;;5.45;51.87;95826.75;647619;216;31661;-73
2022/03/07 12:00:44;;;;;;;9.48;5.85;;;3.40;1.40;;;4.96;54.01;95824.05;620487;222;31954;-74
2022/03/07 12:03:26;;;;;;;8.25;5.62;;;3.30;1.40;;;6.15;51.27;95815.66;648200;216;31616;-74
2022/03/07 12:06:10;;;;;;;8.30;6.30;;;4.00;1.40;;;6.37;50.69;95808.87;618587;222;33271;-75
2022/03/07 12:08:53;;;;;;;6.87;5.30;;;4.10;1.40;;;6.86;49.93;95798.38;647693;212;31569;-74
2022/03/07 12:11:34;;;;;;;6.75;4.75;;;4.40;1.40;;;7.10;49.48;95802.37;646393;216;31697;-74
2022/03/07 12:14:21;;;;;;;7.85;5.68;;;4.30;1.40;;;6.81;49.55;95803.30;619388;222;32109;-74
2022/03/07 12:17:14;;;;;;;6.65;5.78;;;4.80;1.40;;;5.63;50.93;95804.52;618232;226;31896;-74